createdAt,value
2018-07-15T00:00:14.268Z,46.50
2018-07-15T00:05:17.450Z,46.60
2018-07-15T00:10:20.839Z,46.60
2018-07-15T00:15:24.011Z,46.60
2018-07-15T00:20:27.218Z,46.60
2018-07-15T00:25:30.532Z,46.70
2018-07-15T00:30:33.797Z,46.70
2018-07-15T00:35:37.868Z,46.70
2018-07-15T00:40:41.412Z,46.70
2018-07-15T00:45:44.576Z,46.70
2018-07-15T00:50:47.873Z,46.70
2018-07-15T00:55:51.030Z,46.70
2018-07-15T01:00:59.505Z,46.80
2018-07-15T01:06:02.948Z,46.80
2018-07-15T01:11:06.138Z,46.80
2018-07-15T01:16:09.541Z,46.80
2018-07-15T01:21:12.842Z,46.80
2018-07-15T01:26:16.252Z,46.80
2018-07-15T01:31:19.772Z,46.80
2018-07-15T01:36:22.952Z,46.90
2018-07-15T01:41:26.153Z,46.90
2018-07-15T01:46:29.429Z,46.90
2018-07-15T01:51:32.634Z,47.00
2018-07-15T01:56:35.813Z,47.00
2018-07-15T02:01:39.025Z,46.90
2018-07-15T02:06:42.235Z,47.00
2018-07-15T02:11:45.411Z,47.10
2018-07-15T02:16:48.641Z,47.10
2018-07-15T02:21:51.849Z,47.10
2018-07-15T02:26:55.202Z,47.10
2018-07-15T02:31:58.373Z,47.10
2018-07-15T02:37:01.660Z,47.70
2018-07-15T02:42:04.834Z,47.10
2018-07-15T02:47:07.997Z,47.20
2018-07-15T02:52:11.711Z,47.20
2018-07-15T02:57:14.895Z,47.30
2018-07-15T03:02:18.077Z,47.30
2018-07-15T03:07:21.238Z,47.50
2018-07-15T03:12:24.638Z,47.40
2018-07-15T03:17:27.882Z,47.40
2018-07-15T03:22:31.013Z,47.30
2018-07-15T03:27:34.221Z,47.40
2018-07-15T03:32:37.445Z,47.50
2018-07-15T03:37:40.632Z,47.50
2018-07-15T03:42:43.858Z,47.40
2018-07-15T03:47:47.176Z,47.50
2018-07-15T03:52:51.388Z,47.40
2018-07-15T03:57:54.581Z,47.50
2018-07-15T04:02:57.757Z,47.40
2018-07-15T04:08:01.920Z,47.30
2018-07-15T04:13:05.174Z,47.40
2018-07-15T04:18:08.487Z,47.50
2018-07-15T04:23:11.649Z,47.40
2018-07-15T04:28:14.901Z,47.40
2018-07-15T04:33:18.018Z,47.30
2018-07-15T04:38:21.348Z,47.20
2018-07-15T04:43:24.676Z,47.20
2018-07-15T04:48:27.870Z,47.20
2018-07-15T04:53:31.036Z,47.60
2018-07-15T04:58:34.497Z,46.90
2018-07-15T05:03:38.372Z,46.70
2018-07-15T05:08:41.532Z,46.70
2018-07-15T05:13:44.707Z,46.60
2018-07-15T05:18:47.992Z,46.50
2018-07-15T05:23:51.288Z,46.40
2018-07-15T05:28:54.500Z,46.40
2018-07-15T05:33:57.784Z,46.30
2018-07-15T05:39:00.954Z,46.20
2018-07-15T05:44:04.159Z,46.20
2018-07-15T05:49:07.392Z,46.10
2018-07-15T05:54:10.860Z,46.20
2018-07-15T05:59:14.025Z,46.30
2018-07-15T06:04:17.271Z,46.20
2018-07-15T06:09:20.532Z,46.00
2018-07-15T06:14:24.517Z,45.90
2018-07-15T06:19:27.896Z,45.70
2018-07-15T06:24:31.174Z,45.70
2018-07-15T06:29:34.428Z,45.60
2018-07-15T06:34:37.832Z,45.60
2018-07-15T06:39:40.999Z,45.50
2018-07-15T06:44:44.252Z,45.40
2018-07-15T06:49:47.422Z,45.40
2018-07-15T06:54:50.714Z,45.30
2018-07-15T06:59:53.959Z,44.30
2018-07-15T07:04:57.401Z,44.60
2018-07-15T07:10:00.615Z,44.10
2018-07-15T07:15:04.506Z,44.40
2018-07-15T07:20:07.745Z,45.00
2018-07-15T07:25:10.971Z,44.80
2018-07-15T07:30:14.335Z,44.60
2018-07-15T07:35:17.815Z,44.60
2018-07-15T07:40:20.990Z,44.80
2018-07-15T07:45:24.249Z,44.70
2018-07-15T07:50:27.469Z,44.70
2018-07-15T07:55:30.758Z,44.70
2018-07-15T08:00:33.974Z,44.50
2018-07-15T08:05:37.241Z,44.60
2018-07-15T08:10:40.493Z,44.50
2018-07-15T08:15:43.725Z,44.30
2018-07-15T08:20:46.973Z,44.30
2018-07-15T08:25:50.333Z,44.20
2018-07-15T08:31:05.199Z,44.40
2018-07-15T08:36:08.726Z,44.50
2018-07-15T08:41:11.899Z,44.70
2018-07-15T08:46:15.209Z,44.60
2018-07-15T08:51:18.392Z,44.60
2018-07-15T08:56:21.835Z,44.60
2018-07-15T09:01:25.218Z,44.60
2018-07-15T09:06:28.453Z,44.60
2018-07-15T09:11:31.637Z,44.60
2018-07-15T09:16:35.305Z,44.60
2018-07-15T09:21:38.466Z,44.70
2018-07-15T09:26:41.744Z,44.70
2018-07-15T09:31:44.946Z,44.70
2018-07-15T09:36:48.205Z,44.70
2018-07-15T09:41:51.516Z,44.80
2018-07-15T09:46:54.737Z,44.80
2018-07-15T09:51:58.269Z,44.70
2018-07-15T09:57:01.453Z,44.60
2018-07-15T10:02:04.716Z,44.60
2018-07-15T10:07:07.938Z,44.60
2018-07-15T10:12:11.185Z,44.60
2018-07-15T10:17:14.369Z,44.60
2018-07-15T10:22:17.599Z,44.70
2018-07-15T10:27:21.169Z,44.60
2018-07-15T10:32:24.571Z,44.50
2018-07-15T10:37:27.919Z,44.50
2018-07-15T10:42:31.262Z,44.40
2018-07-15T10:47:34.603Z,44.30
2018-07-15T10:52:37.874Z,44.30
2018-07-15T10:57:41.187Z,44.40
2018-07-15T11:02:44.513Z,44.40
2018-07-15T11:07:47.733Z,44.40
2018-07-15T11:12:50.913Z,44.30
2018-07-15T11:17:54.075Z,44.30
2018-07-15T11:22:57.308Z,44.20
2018-07-15T11:28:00.644Z,44.10
2018-07-15T11:33:03.835Z,44.00
2018-07-15T11:38:07.046Z,44.10
2018-07-15T11:43:10.300Z,44.00
2018-07-15T11:48:13.559Z,44.00
2018-07-15T11:53:16.875Z,43.90
2018-07-15T11:58:20.061Z,43.90
2018-07-15T12:03:23.471Z,43.80
2018-07-15T12:08:26.791Z,43.60
2018-07-15T12:13:30.044Z,43.60
2018-07-15T12:18:33.378Z,43.70
2018-07-15T12:23:36.656Z,43.60
2018-07-15T12:28:40.053Z,43.50
2018-07-15T12:33:43.597Z,43.50
2018-07-15T12:38:46.811Z,43.40
2018-07-15T12:43:50.095Z,43.30
2018-07-15T12:48:53.283Z,43.30
2018-07-15T12:53:56.483Z,43.30
2018-07-15T12:58:59.892Z,43.20
2018-07-15T13:04:03.164Z,43.20
2018-07-15T13:09:06.499Z,43.40
2018-07-15T13:14:09.763Z,43.40
2018-07-15T13:19:13.050Z,43.30
2018-07-15T13:24:16.376Z,43.40
2018-07-15T13:29:19.592Z,43.30
2018-07-15T13:34:22.774Z,43.30
2018-07-15T13:39:26.040Z,43.20
2018-07-15T13:44:29.360Z,43.10
2018-07-15T13:49:32.514Z,43.20
2018-07-15T13:54:35.862Z,43.20
2018-07-15T13:59:39.176Z,43.20
2018-07-15T14:04:42.381Z,43.30
2018-07-15T14:09:45.580Z,43.20
2018-07-15T14:14:48.954Z,43.20
2018-07-15T14:19:52.332Z,43.20
2018-07-15T14:24:55.655Z,43.20
2018-07-15T14:29:58.865Z,43.20
2018-07-15T14:35:02.113Z,43.20
2018-07-15T14:40:05.558Z,43.10
2018-07-15T14:45:08.834Z,43.00
2018-07-15T14:50:12.063Z,43.20
2018-07-15T14:55:15.338Z,43.10
2018-07-15T15:00:18.719Z,43.20
2018-07-15T15:05:21.890Z,43.10
2018-07-15T15:10:25.056Z,43.20
2018-07-15T15:15:28.230Z,43.10
2018-07-15T15:20:31.673Z,43.10
2018-07-15T15:25:34.951Z,43.10
2018-07-15T15:30:38.921Z,43.10
2018-07-15T15:35:42.313Z,43.10
2018-07-15T15:40:45.925Z,43.10
2018-07-15T15:45:49.517Z,42.80
2018-07-15T15:50:52.870Z,42.80
2018-07-15T15:55:56.074Z,42.90
2018-07-15T16:00:59.461Z,42.80
2018-07-15T16:06:02.857Z,42.80
2018-07-15T16:11:06.123Z,42.90
2018-07-15T16:16:09.478Z,42.90
2018-07-15T16:21:12.784Z,43.00
2018-07-15T16:26:15.976Z,42.90
2018-07-15T16:31:19.178Z,42.80
2018-07-15T16:36:22.484Z,42.80
2018-07-15T16:41:25.654Z,42.80
2018-07-15T16:46:28.871Z,42.80
2018-07-15T16:51:32.029Z,42.80
2018-07-15T16:56:35.220Z,42.80
2018-07-15T17:01:38.401Z,42.80
2018-07-15T17:06:41.699Z,42.80
2018-07-15T17:11:44.880Z,42.80
2018-07-15T17:16:48.242Z,42.80
2018-07-15T17:21:51.706Z,42.80
2018-07-15T17:26:54.943Z,42.60
2018-07-15T17:31:59.697Z,42.70
2018-07-15T17:37:02.940Z,42.60
2018-07-15T17:42:06.165Z,42.80
2018-07-15T17:47:09.401Z,42.80
2018-07-15T17:52:12.708Z,42.80
2018-07-15T17:57:15.900Z,42.70
2018-07-15T18:02:19.129Z,42.70
2018-07-15T18:07:22.813Z,42.60
2018-07-15T18:12:26.215Z,42.60
2018-07-15T18:17:29.560Z,42.60
2018-07-15T18:22:32.970Z,42.60
2018-07-15T18:27:36.155Z,42.70
2018-07-15T18:32:39.396Z,42.60
2018-07-15T18:37:42.669Z,42.60
2018-07-15T18:42:46.719Z,42.60
2018-07-15T18:47:50.121Z,42.60
2018-07-15T18:52:53.978Z,42.50
2018-07-15T18:57:59.310Z,43.00
2018-07-15T19:03:04.566Z,42.50
2018-07-15T19:08:09.230Z,42.60
2018-07-15T19:13:12.786Z,42.50
2018-07-15T19:18:16.140Z,42.60
2018-07-15T19:23:19.327Z,42.60
2018-07-15T19:28:22.641Z,42.60
2018-07-15T19:33:25.995Z,42.50
2018-07-15T19:38:30.010Z,42.40
2018-07-15T19:43:33.363Z,42.50
2018-07-15T19:48:37.621Z,42.50
2018-07-15T19:53:40.912Z,42.40
2018-07-15T19:58:44.438Z,42.30
2018-07-15T20:03:47.693Z,41.90
2018-07-15T20:08:50.967Z,42.10
2018-07-15T20:13:54.418Z,42.40
2018-07-15T20:18:57.655Z,42.30
2018-07-15T20:24:01.060Z,42.30
2018-07-15T20:29:04.906Z,42.30
2018-07-15T20:34:08.397Z,42.50
2018-07-15T20:39:11.576Z,42.50
2018-07-15T20:44:14.839Z,42.70
2018-07-15T20:49:18.148Z,42.80
2018-07-15T20:54:21.373Z,43.00
2018-07-15T20:59:24.727Z,43.00
2018-07-15T21:04:28.022Z,43.20
2018-07-15T21:09:32.033Z,43.20
2018-07-15T21:14:35.602Z,43.10
2018-07-15T21:19:38.807Z,43.40
2018-07-15T21:24:42.177Z,43.50
2018-07-15T21:29:45.414Z,43.50
2018-07-15T21:34:48.628Z,44.00
2018-07-15T21:39:52.450Z,44.00
2018-07-15T21:44:55.801Z,44.30
2018-07-15T21:49:58.976Z,44.60
2018-07-15T21:55:02.176Z,44.90
2018-07-15T22:00:06.502Z,45.00
2018-07-15T22:05:10.281Z,45.30
2018-07-15T22:10:46.313Z,45.60
2018-07-15T22:15:50.301Z,45.60
2018-07-15T22:20:53.491Z,45.30
2018-07-15T22:25:56.643Z,44.90
2018-07-15T22:30:59.879Z,44.70
2018-07-15T22:36:03.042Z,44.70
2018-07-15T22:41:06.292Z,45.30
2018-07-15T22:46:09.520Z,44.70
2018-07-15T22:51:12.747Z,44.70
2018-07-15T22:56:15.886Z,44.80
2018-07-15T23:01:19.088Z,44.80
2018-07-15T23:06:22.298Z,44.90
2018-07-15T23:11:25.596Z,44.90
2018-07-15T23:16:28.767Z,44.90
2018-07-15T23:21:31.925Z,44.90
2018-07-15T23:26:35.081Z,44.90
2018-07-15T23:31:38.477Z,45.00
2018-07-15T23:36:45.038Z,45.10
2018-07-15T23:41:48.504Z,45.10
2018-07-15T23:46:51.862Z,45.10
2018-07-15T23:51:55.040Z,45.10
2018-07-15T23:56:58.179Z,45.10
